sensor_id;sensor_type;location;lat;lon;timestamp;temperature;humidity
64718;DHT22;62506;46.070;14.492;2023-05-10T00:00:08;22.80;55.90
64718;DHT22;62506;46.070;14.492;2023-05-10T00:02:34;22.80;55.90
64718;DHT22;62506;46.070;14.492;2023-05-10T00:05:00;22.80;55.90
64718;DHT22;62506;46.070;14.492;2023-05-10T00:07:26;22.80;56.00
64718;DHT22;62506;46.070;14.492;2023-05-10T00:09:51;22.80;55.90
64718;DHT22;62506;46.070;14.492;2023-05-10T00:12:17;22.80;55.90
64718;DHT22;62506;46.070;14.492;2023-05-10T00:14:42;22.80;55.90
64718;DHT22;62506;46.070;14.492;2023-05-10T00:17:08;22.80;55.90
64718;DHT22;62506;46.070;14.492;2023-05-10T00:19:33;22.80;56.00
64718;DHT22;62506;46.070;14.492;2023-05-10T00:21:59;22.80;55.90
64718;DHT22;62506;46.070;14.492;2023-05-10T00:24:24;22.80;55.90
64718;DHT22;62506;46.070;14.492;2023-05-10T00:26:50;22.80;55.90
64718;DHT22;62506;46.070;14.492;2023-05-10T00:29:15;22.80;56.00
64718;DHT22;62506;46.070;14.492;2023-05-10T00:31:41;22.80;56.00
64718;DHT22;62506;46.070;14.492;2023-05-10T00:34:06;22.80;56.00
64718;DHT22;62506;46.070;14.492;2023-05-10T00:36:32;22.80;56.00
64718;DHT22;62506;46.070;14.492;2023-05-10T00:38:57;22.80;55.90
64718;DHT22;62506;46.070;14.492;2023-05-10T00:41:23;22.80;55.90
64718;DHT22;62506;46.070;14.492;2023-05-10T00:43:48;22.80;55.90
64718;DHT22;62506;46.070;14.492;2023-05-10T00:46:14;22.80;55.90
64718;DHT22;62506;46.070;14.492;2023-05-10T00:48:40;22.80;56.00
64718;DHT22;62506;46.070;14.492;2023-05-10T00:51:05;22.80;56.00
64718;DHT22;62506;46.070;14.492;2023-05-10T00:53:31;22.80;56.10
64718;DHT22;62506;46.070;14.492;2023-05-10T00:55:58;22.70;56.20
64718;DHT22;62506;46.070;14.492;2023-05-10T00:58:24;22.70;56.20
64718;DHT22;62506;46.070;14.492;2023-05-10T01:00:54;22.70;56.20
64718;DHT22;62506;46.070;14.492;2023-05-10T01:03:19;22.70;56.20
64718;DHT22;62506;46.070;14.492;2023-05-10T01:05:45;22.70;56.20
64718;DHT22;62506;46.070;14.492;2023-05-10T01:08:11;22.70;56.20
64718;DHT22;62506;46.070;14.492;2023-05-10T01:10:37;22.70;56.20
64718;DHT22;62506;46.070;14.492;2023-05-10T01:13:02;22.70;56.30
64718;DHT22;62506;46.070;14.492;2023-05-10T01:15:28;22.70;56.30
64718;DHT22;62506;46.070;14.492;2023-05-10T01:17:54;22.70;56.30
64718;DHT22;62506;46.070;14.492;2023-05-10T01:20:21;22.70;56.30
64718;DHT22;62506;46.070;14.492;2023-05-10T01:22:59;22.70;56.30
64718;DHT22;62506;46.070;14.492;2023-05-10T01:33:22;22.70;56.40
64718;DHT22;62506;46.070;14.492;2023-05-10T01:39:05;22.70;56.40
64718;DHT22;62506;46.070;14.492;2023-05-10T01:43:53;22.70;56.30
64718;DHT22;62506;46.070;14.492;2023-05-10T01:46:23;22.70;56.30
64718;DHT22;62506;46.070;14.492;2023-05-10T01:48:54;22.70;56.30
64718;DHT22;62506;46.070;14.492;2023-05-10T01:51:24;22.70;56.30
64718;DHT22;62506;46.070;14.492;2023-05-10T01:53:51;22.70;56.90
64718;DHT22;62506;46.070;14.492;2023-05-10T01:56:19;22.70;56.30
64718;DHT22;62506;46.070;14.492;2023-05-10T01:58:47;22.70;56.30
64718;DHT22;62506;46.070;14.492;2023-05-10T02:01:14;22.70;56.30
64718;DHT22;62506;46.070;14.492;2023-05-10T02:03:40;22.70;56.30
64718;DHT22;62506;46.070;14.492;2023-05-10T02:06:08;22.70;56.30
64718;DHT22;62506;46.070;14.492;2023-05-10T02:08:34;22.70;56.30
64718;DHT22;62506;46.070;14.492;2023-05-10T02:11:00;22.70;56.20
64718;DHT22;62506;46.070;14.492;2023-05-10T02:13:27;22.70;56.20
64718;DHT22;62506;46.070;14.492;2023-05-10T02:15:54;22.70;56.20
64718;DHT22;62506;46.070;14.492;2023-05-10T02:18:20;22.70;56.20
64718;DHT22;62506;46.070;14.492;2023-05-10T02:20:47;22.70;56.20
64718;DHT22;62506;46.070;14.492;2023-05-10T02:23:13;22.70;56.20
64718;DHT22;62506;46.070;14.492;2023-05-10T02:25:39;22.70;56.20
64718;DHT22;62506;46.070;14.492;2023-05-10T02:28:05;22.70;56.20
64718;DHT22;62506;46.070;14.492;2023-05-10T02:30:32;22.70;56.30
64718;DHT22;62506;46.070;14.492;2023-05-10T02:32:58;22.70;56.30
64718;DHT22;62506;46.070;14.492;2023-05-10T02:35:25;22.70;56.30
64718;DHT22;62506;46.070;14.492;2023-05-10T02:37:51;22.70;56.30
64718;DHT22;62506;46.070;14.492;2023-05-10T02:40:17;22.70;56.30
64718;DHT22;62506;46.070;14.492;2023-05-10T02:42:44;22.70;56.30
64718;DHT22;62506;46.070;14.492;2023-05-10T02:45:13;22.70;56.40
64718;DHT22;62506;46.070;14.492;2023-05-10T02:47:39;22.70;56.40
64718;DHT22;62506;46.070;14.492;2023-05-10T02:50:05;22.70;56.40
64718;DHT22;62506;46.070;14.492;2023-05-10T02:52:35;22.70;56.50
64718;DHT22;62506;46.070;14.492;2023-05-10T02:55:02;22.70;56.50
64718;DHT22;62506;46.070;14.492;2023-05-10T02:57:31;22.70;56.50
64718;DHT22;62506;46.070;14.492;2023-05-10T02:59:57;22.70;56.50
64718;DHT22;62506;46.070;14.492;2023-05-10T03:02:22;22.70;56.50
64718;DHT22;62506;46.070;14.492;2023-05-10T03:04:48;22.70;56.50
64718;DHT22;62506;46.070;14.492;2023-05-10T03:07:13;22.60;56.50
64718;DHT22;62506;46.070;14.492;2023-05-10T03:09:39;22.70;56.50
64718;DHT22;62506;46.070;14.492;2023-05-10T03:12:07;22.70;56.50
64718;DHT22;62506;46.070;14.492;2023-05-10T03:17:10;22.70;56.60
64718;DHT22;62506;46.070;14.492;2023-05-10T03:19:39;22.70;56.60
64718;DHT22;62506;46.070;14.492;2023-05-10T03:22:08;22.60;56.50
64718;DHT22;62506;46.070;14.492;2023-05-10T03:24:35;22.60;56.60
64718;DHT22;62506;46.070;14.492;2023-05-10T03:27:01;22.60;56.50
64718;DHT22;62506;46.070;14.492;2023-05-10T03:29:29;22.60;56.60
64718;DHT22;62506;46.070;14.492;2023-05-10T03:31:57;22.60;56.60
64718;DHT22;62506;46.070;14.492;2023-05-10T03:34:23;22.60;56.60
64718;DHT22;62506;46.070;14.492;2023-05-10T03:36:48;22.60;56.50
64718;DHT22;62506;46.070;14.492;2023-05-10T03:39:14;22.60;56.50
64718;DHT22;62506;46.070;14.492;2023-05-10T03:41:39;22.70;56.50
64718;DHT22;62506;46.070;14.492;2023-05-10T03:44:05;22.70;56.30
64718;DHT22;62506;46.070;14.492;2023-05-10T03:46:30;22.70;56.20
64718;DHT22;62506;46.070;14.492;2023-05-10T03:48:56;22.70;56.20
64718;DHT22;62506;46.070;14.492;2023-05-10T03:51:21;22.70;56.00
64718;DHT22;62506;46.070;14.492;2023-05-10T03:53:47;22.70;56.00
64718;DHT22;62506;46.070;14.492;2023-05-10T03:56:12;22.70;56.10
64718;DHT22;62506;46.070;14.492;2023-05-10T03:58:38;22.70;56.10
64718;DHT22;62506;46.070;14.492;2023-05-10T04:01:03;22.70;56.00
64718;DHT22;62506;46.070;14.492;2023-05-10T04:03:29;22.70;56.00
64718;DHT22;62506;46.070;14.492;2023-05-10T04:05:58;22.70;56.00
64718;DHT22;62506;46.070;14.492;2023-05-10T04:08:24;22.70;55.90
64718;DHT22;62506;46.070;14.492;2023-05-10T04:10:50;22.70;55.90
64718;DHT22;62506;46.070;14.492;2023-05-10T04:13:15;22.80;56.30
64718;DHT22;62506;46.070;14.492;2023-05-10T04:15:40;22.80;56.30
64718;DHT22;62506;46.070;14.492;2023-05-10T04:18:06;22.80;56.00
64718;DHT22;62506;46.070;14.492;2023-05-10T04:20:32;22.80;56.20
64718;DHT22;62506;46.070;14.492;2023-05-10T04:22:57;22.80;56.30
64718;DHT22;62506;46.070;14.492;2023-05-10T04:25:23;22.80;56.30
64718;DHT22;62506;46.070;14.492;2023-05-10T04:27:49;22.80;56.30
64718;DHT22;62506;46.070;14.492;2023-05-10T04:30:14;22.80;56.30
64718;DHT22;62506;46.070;14.492;2023-05-10T04:32:39;22.80;56.20
64718;DHT22;62506;46.070;14.492;2023-05-10T04:35:05;22.80;56.20
64718;DHT22;62506;46.070;14.492;2023-05-10T04:37:31;22.80;56.20
64718;DHT22;62506;46.070;14.492;2023-05-10T04:39:56;22.80;56.30
64718;DHT22;62506;46.070;14.492;2023-05-10T04:42:22;22.80;56.40
64718;DHT22;62506;46.070;14.492;2023-05-10T04:44:47;22.80;56.50
64718;DHT22;62506;46.070;14.492;2023-05-10T04:47:12;22.80;56.60
64718;DHT22;62506;46.070;14.492;2023-05-10T04:49:38;22.90;56.80
64718;DHT22;62506;46.070;14.492;2023-05-10T04:52:04;22.90;56.80
64718;DHT22;62506;46.070;14.492;2023-05-10T04:54:29;22.90;56.80
64718;DHT22;62506;46.070;14.492;2023-05-10T04:56:55;22.90;56.90
64718;DHT22;62506;46.070;14.492;2023-05-10T04:59:20;22.90;56.60
64718;DHT22;62506;46.070;14.492;2023-05-10T05:01:45;22.90;56.60
64718;DHT22;62506;46.070;14.492;2023-05-10T05:04:11;22.90;56.70
64718;DHT22;62506;46.070;14.492;2023-05-10T05:06:36;22.90;56.50
64718;DHT22;62506;46.070;14.492;2023-05-10T05:09:02;22.90;56.60
64718;DHT22;62506;46.070;14.492;2023-05-10T05:11:28;22.90;56.70
64718;DHT22;62506;46.070;14.492;2023-05-10T05:13:53;22.90;56.50
64718;DHT22;62506;46.070;14.492;2023-05-10T05:16:19;22.90;56.00
64718;DHT22;62506;46.070;14.492;2023-05-10T05:18:44;22.90;56.00
64718;DHT22;62506;46.070;14.492;2023-05-10T05:21:13;22.90;56.10
64718;DHT22;62506;46.070;14.492;2023-05-10T05:23:40;23.00;56.00
64718;DHT22;62506;46.070;14.492;2023-05-10T05:26:05;23.00;56.00
64718;DHT22;62506;46.070;14.492;2023-05-10T05:28:31;23.00;56.00
64718;DHT22;62506;46.070;14.492;2023-05-10T05:30:59;23.00;56.00
64718;DHT22;62506;46.070;14.492;2023-05-10T05:33:24;23.00;56.00
64718;DHT22;62506;46.070;14.492;2023-05-10T05:35:50;23.00;55.90
64718;DHT22;62506;46.070;14.492;2023-05-10T05:38:16;23.00;55.80
64718;DHT22;62506;46.070;14.492;2023-05-10T05:40:42;22.90;53.00
64718;DHT22;62506;46.070;14.492;2023-05-10T05:43:08;22.90;54.00
64718;DHT22;62506;46.070;14.492;2023-05-10T05:45:33;22.80;55.50
64718;DHT22;62506;46.070;14.492;2023-05-10T05:47:59;22.80;55.20
64718;DHT22;62506;46.070;14.492;2023-05-10T05:50:24;22.90;55.40
64718;DHT22;62506;46.070;14.492;2023-05-10T05:52:50;22.90;55.60
64718;DHT22;62506;46.070;14.492;2023-05-10T05:55:15;22.90;55.60
64718;DHT22;62506;46.070;14.492;2023-05-10T05:57:41;22.90;55.60
64718;DHT22;62506;46.070;14.492;2023-05-10T06:00:06;22.90;55.60
64718;DHT22;62506;46.070;14.492;2023-05-10T06:02:32;22.80;51.70
64718;DHT22;62506;46.070;14.492;2023-05-10T06:04:57;22.70;51.00
64718;DHT22;62506;46.070;14.492;2023-05-10T06:07:23;22.60;50.70
64718;DHT22;62506;46.070;14.492;2023-05-10T06:09:48;22.60;52.40
64718;DHT22;62506;46.070;14.492;2023-05-10T06:12:14;22.70;53.90
64718;DHT22;62506;46.070;14.492;2023-05-10T06:14:39;22.70;54.20
64718;DHT22;62506;46.070;14.492;2023-05-10T06:17:05;22.80;54.40
64718;DHT22;62506;46.070;14.492;2023-05-10T06:19:31;22.70;54.40
64718;DHT22;62506;46.070;14.492;2023-05-10T06:21:57;22.80;54.60
64718;DHT22;62506;46.070;14.492;2023-05-10T06:24:23;22.80;54.60
64718;DHT22;62506;46.070;14.492;2023-05-10T06:26:48;22.90;54.70
64718;DHT22;62506;46.070;14.492;2023-05-10T06:29:15;22.90;54.80
64718;DHT22;62506;46.070;14.492;2023-05-10T06:31:40;22.90;54.80
64718;DHT22;62506;46.070;14.492;2023-05-10T06:34:06;22.90;54.70
64718;DHT22;62506;46.070;14.492;2023-05-10T06:36:33;22.90;54.80
64718;DHT22;62506;46.070;14.492;2023-05-10T06:38:58;22.90;54.80
64718;DHT22;62506;46.070;14.492;2023-05-10T06:41:24;23.00;54.50
64718;DHT22;62506;46.070;14.492;2023-05-10T06:43:49;23.00;55.00
64718;DHT22;62506;46.070;14.492;2023-05-10T06:46:15;23.10;54.80
64718;DHT22;62506;46.070;14.492;2023-05-10T06:48:40;23.10;54.80
64718;DHT22;62506;46.070;14.492;2023-05-10T06:51:06;23.10;54.80
64718;DHT22;62506;46.070;14.492;2023-05-10T06:53:31;23.10;54.80
64718;DHT22;62506;46.070;14.492;2023-05-10T06:55:57;23.10;54.90
64718;DHT22;62506;46.070;14.492;2023-05-10T06:58:23;23.10;54.80
64718;DHT22;62506;46.070;14.492;2023-05-10T07:00:48;23.10;54.70
64718;DHT22;62506;46.070;14.492;2023-05-10T07:03:14;23.20;54.80
64718;DHT22;62506;46.070;14.492;2023-05-10T07:05:39;23.20;54.60
64718;DHT22;62506;46.070;14.492;2023-05-10T07:08:05;23.20;54.40
64718;DHT22;62506;46.070;14.492;2023-05-10T07:10:30;23.20;54.40
64718;DHT22;62506;46.070;14.492;2023-05-10T07:12:56;23.20;54.50
64718;DHT22;62506;46.070;14.492;2023-05-10T07:15:22;23.20;54.60
64718;DHT22;62506;46.070;14.492;2023-05-10T07:17:48;23.30;54.30
64718;DHT22;62506;46.070;14.492;2023-05-10T07:20:13;23.30;54.00
64718;DHT22;62506;46.070;14.492;2023-05-10T07:22:39;23.30;53.80
64718;DHT22;62506;46.070;14.492;2023-05-10T07:25:04;23.30;54.40
64718;DHT22;62506;46.070;14.492;2023-05-10T07:27:30;23.30;54.30
64718;DHT22;62506;46.070;14.492;2023-05-10T07:29:55;23.30;54.30
64718;DHT22;62506;46.070;14.492;2023-05-10T07:32:21;23.30;54.30
64718;DHT22;62506;46.070;14.492;2023-05-10T07:34:47;23.30;54.10
64718;DHT22;62506;46.070;14.492;2023-05-10T07:37:12;23.30;54.30
64718;DHT22;62506;46.070;14.492;2023-05-10T07:39:38;23.20;54.40
64718;DHT22;62506;46.070;14.492;2023-05-10T07:42:04;23.20;54.40
64718;DHT22;62506;46.070;14.492;2023-05-10T07:44:29;23.20;54.40
64718;DHT22;62506;46.070;14.492;2023-05-10T07:46:55;23.20;55.20
64718;DHT22;62506;46.070;14.492;2023-05-10T07:49:20;23.20;54.90
64718;DHT22;62506;46.070;14.492;2023-05-10T07:51:46;23.20;55.00
64718;DHT22;62506;46.070;14.492;2023-05-10T07:54:12;23.30;55.40
64718;DHT22;62506;46.070;14.492;2023-05-10T07:56:37;23.30;55.50
64718;DHT22;62506;46.070;14.492;2023-05-10T07:59:04;23.30;55.50
64718;DHT22;62506;46.070;14.492;2023-05-10T08:01:32;23.30;55.60
64718;DHT22;62506;46.070;14.492;2023-05-10T08:03:58;23.30;55.60
64718;DHT22;62506;46.070;14.492;2023-05-10T08:06:23;23.30;55.70
64718;DHT22;62506;46.070;14.492;2023-05-10T08:08:51;23.30;56.10
64718;DHT22;62506;46.070;14.492;2023-05-10T08:11:17;23.30;56.30
64718;DHT22;62506;46.070;14.492;2023-05-10T08:13:43;23.30;55.80
64718;DHT22;62506;46.070;14.492;2023-05-10T08:16:09;23.30;55.90
64718;DHT22;62506;46.070;14.492;2023-05-10T08:18:34;23.30;56.00
64718;DHT22;62506;46.070;14.492;2023-05-10T08:21:00;23.30;56.00
64718;DHT22;62506;46.070;14.492;2023-05-10T08:23:25;23.30;56.10
64718;DHT22;62506;46.070;14.492;2023-05-10T08:25:51;23.30;56.10
64718;DHT22;62506;46.070;14.492;2023-05-10T08:28:16;23.30;56.20
64718;DHT22;62506;46.070;14.492;2023-05-10T08:30:42;23.30;56.20
64718;DHT22;62506;46.070;14.492;2023-05-10T08:33:07;23.30;56.10
64718;DHT22;62506;46.070;14.492;2023-05-10T08:35:33;23.30;56.20
64718;DHT22;62506;46.070;14.492;2023-05-10T08:38:00;23.30;56.10
64718;DHT22;62506;46.070;14.492;2023-05-10T08:40:25;23.30;56.20
64718;DHT22;62506;46.070;14.492;2023-05-10T08:42:54;23.30;56.20
64718;DHT22;62506;46.070;14.492;2023-05-10T08:45:21;23.30;56.40
64718;DHT22;62506;46.070;14.492;2023-05-10T08:47:51;23.30;56.30
64718;DHT22;62506;46.070;14.492;2023-05-10T08:50:18;23.30;56.20
64718;DHT22;62506;46.070;14.492;2023-05-10T08:52:44;23.30;56.40
64718;DHT22;62506;46.070;14.492;2023-05-10T08:55:10;23.30;56.20
64718;DHT22;62506;46.070;14.492;2023-05-10T08:57:36;23.30;56.40
64718;DHT22;62506;46.070;14.492;2023-05-10T09:00:02;23.30;56.40
64718;DHT22;62506;46.070;14.492;2023-05-10T09:02:27;23.40;56.20
64718;DHT22;62506;46.070;14.492;2023-05-10T09:04:53;23.30;56.40
64718;DHT22;62506;46.070;14.492;2023-05-10T09:07:18;23.40;56.30
64718;DHT22;62506;46.070;14.492;2023-05-10T09:09:45;23.40;56.40
64718;DHT22;62506;46.070;14.492;2023-05-10T09:12:11;23.40;56.20
64718;DHT22;62506;46.070;14.492;2023-05-10T09:14:37;23.40;56.10
64718;DHT22;62506;46.070;14.492;2023-05-10T09:17:03;23.40;56.10
64718;DHT22;62506;46.070;14.492;2023-05-10T09:19:29;23.40;56.20
64718;DHT22;62506;46.070;14.492;2023-05-10T09:21:54;23.40;56.10
64718;DHT22;62506;46.070;14.492;2023-05-10T09:24:21;23.40;56.70
64718;DHT22;62506;46.070;14.492;2023-05-10T09:26:50;23.40;56.00
64718;DHT22;62506;46.070;14.492;2023-05-10T09:29:15;23.40;56.00
64718;DHT22;62506;46.070;14.492;2023-05-10T09:31:47;23.40;56.00
64718;DHT22;62506;46.070;14.492;2023-05-10T09:34:17;23.40;56.00
64718;DHT22;62506;46.070;14.492;2023-05-10T09:36:50;23.40;56.00
64718;DHT22;62506;46.070;14.492;2023-05-10T09:39:16;23.40;56.00
64718;DHT22;62506;46.070;14.492;2023-05-10T09:41:41;23.40;56.00
64718;DHT22;62506;46.070;14.492;2023-05-10T09:44:07;23.40;56.10
64718;DHT22;62506;46.070;14.492;2023-05-10T09:46:34;23.40;56.00
64718;DHT22;62506;46.070;14.492;2023-05-10T09:49:01;23.40;56.00
64718;DHT22;62506;46.070;14.492;2023-05-10T09:51:26;23.40;56.30
64718;DHT22;62506;46.070;14.492;2023-05-10T09:54:10;23.40;56.20
64718;DHT22;62506;46.070;14.492;2023-05-10T09:56:36;23.40;56.30
64718;DHT22;62506;46.070;14.492;2023-05-10T09:59:04;23.40;56.60
64718;DHT22;62506;46.070;14.492;2023-05-10T10:01:30;23.30;56.70
64718;DHT22;62506;46.070;14.492;2023-05-10T10:03:56;23.30;56.60
64718;DHT22;62506;46.070;14.492;2023-05-10T10:06:24;23.30;56.50
64718;DHT22;62506;46.070;14.492;2023-05-10T10:08:50;23.20;56.50
64718;DHT22;62506;46.070;14.492;2023-05-10T10:11:16;23.20;56.60
64718;DHT22;62506;46.070;14.492;2023-05-10T10:13:41;23.20;56.60
64718;DHT22;62506;46.070;14.492;2023-05-10T10:16:07;23.10;56.70
64718;DHT22;62506;46.070;14.492;2023-05-10T10:18:33;23.10;56.60
64718;DHT22;62506;46.070;14.492;2023-05-10T10:20:59;23.10;56.60
64718;DHT22;62506;46.070;14.492;2023-05-10T10:23:24;23.10;56.70
64718;DHT22;62506;46.070;14.492;2023-05-10T10:25:50;23.10;56.60
64718;DHT22;62506;46.070;14.492;2023-05-10T10:28:36;23.10;56.60
64718;DHT22;62506;46.070;14.492;2023-05-10T10:31:25;23.00;56.60
64718;DHT22;62506;46.070;14.492;2023-05-10T10:36:27;23.00;56.60
64718;DHT22;62506;46.070;14.492;2023-05-10T10:41:40;23.00;56.50
64718;DHT22;62506;46.070;14.492;2023-05-10T10:47:07;23.00;56.60
64718;DHT22;62506;46.070;14.492;2023-05-10T10:57:18;23.00;56.40
64718;DHT22;62506;46.070;14.492;2023-05-10T10:59:44;23.00;56.40
64718;DHT22;62506;46.070;14.492;2023-05-10T11:02:09;23.00;56.50
64718;DHT22;62506;46.070;14.492;2023-05-10T11:04:41;23.00;56.40
64718;DHT22;62506;46.070;14.492;2023-05-10T11:07:17;23.00;56.30
64718;DHT22;62506;46.070;14.492;2023-05-10T11:09:44;23.00;56.20
64718;DHT22;62506;46.070;14.492;2023-05-10T11:12:10;23.00;56.20
64718;DHT22;62506;46.070;14.492;2023-05-10T11:14:35;23.00;56.30
64718;DHT22;62506;46.070;14.492;2023-05-10T11:17:01;23.00;56.20
64718;DHT22;62506;46.070;14.492;2023-05-10T11:19:27;23.00;56.20
64718;DHT22;62506;46.070;14.492;2023-05-10T11:24:31;23.00;56.20
64718;DHT22;62506;46.070;14.492;2023-05-10T11:26:56;23.00;56.20
64718;DHT22;62506;46.070;14.492;2023-05-10T11:29:22;22.90;56.20
64718;DHT22;62506;46.070;14.492;2023-05-10T11:31:48;22.90;56.20
64718;DHT22;62506;46.070;14.492;2023-05-10T11:34:27;22.90;56.20
64718;DHT22;62506;46.070;14.492;2023-05-10T11:36:55;22.90;56.20
64718;DHT22;62506;46.070;14.492;2023-05-10T11:39:21;22.90;56.20
64718;DHT22;62506;46.070;14.492;2023-05-10T11:41:48;22.90;56.20
64718;DHT22;62506;46.070;14.492;2023-05-10T11:44:13;22.90;56.20
64718;DHT22;62506;46.070;14.492;2023-05-10T11:46:39;22.90;54.60
64718;DHT22;62506;46.070;14.492;2023-05-10T11:49:04;22.80;55.10
64718;DHT22;62506;46.070;14.492;2023-05-10T11:51:35;22.80;55.60
64718;DHT22;62506;46.070;14.492;2023-05-10T11:54:04;22.80;55.30
64718;DHT22;62506;46.070;14.492;2023-05-10T11:56:31;22.80;55.80
64718;DHT22;62506;46.070;14.492;2023-05-10T11:58:57;22.90;56.20
64718;DHT22;62506;46.070;14.492;2023-05-10T12:01:24;22.90;56.40
64718;DHT22;62506;46.070;14.492;2023-05-10T12:03:50;22.90;56.40
64718;DHT22;62506;46.070;14.492;2023-05-10T12:06:17;23.00;56.20
64718;DHT22;62506;46.070;14.492;2023-05-10T12:08:45;23.00;56.20
64718;DHT22;62506;46.070;14.492;2023-05-10T12:11:12;22.90;56.20
64718;DHT22;62506;46.070;14.492;2023-05-10T12:13:43;22.90;56.20
64718;DHT22;62506;46.070;14.492;2023-05-10T12:16:18;22.90;56.30
64718;DHT22;62506;46.070;14.492;2023-05-10T12:18:44;22.90;56.30
64718;DHT22;62506;46.070;14.492;2023-05-10T12:21:10;22.90;56.30
64718;DHT22;62506;46.070;14.492;2023-05-10T12:23:37;22.90;56.20
64718;DHT22;62506;46.070;14.492;2023-05-10T12:26:03;22.90;56.20
64718;DHT22;62506;46.070;14.492;2023-05-10T12:28:32;22.90;56.20
64718;DHT22;62506;46.070;14.492;2023-05-10T12:30:59;22.90;56.20
64718;DHT22;62506;46.070;14.492;2023-05-10T12:33:24;22.90;56.30
64718;DHT22;62506;46.070;14.492;2023-05-10T12:35:51;22.90;56.30
64718;DHT22;62506;46.070;14.492;2023-05-10T12:40:52;22.80;56.20
64718;DHT22;62506;46.070;14.492;2023-05-10T12:43:17;22.80;56.20
64718;DHT22;62506;46.070;14.492;2023-05-10T12:45:43;22.80;56.30
64718;DHT22;62506;46.070;14.492;2023-05-10T12:48:13;22.90;56.30
64718;DHT22;62506;46.070;14.492;2023-05-10T12:50:38;22.80;56.20
64718;DHT22;62506;46.070;14.492;2023-05-10T12:53:04;22.80;56.20
64718;DHT22;62506;46.070;14.492;2023-05-10T12:55:29;22.80;56.20
64718;DHT22;62506;46.070;14.492;2023-05-10T12:57:55;22.80;56.20
64718;DHT22;62506;46.070;14.492;2023-05-10T13:00:20;22.80;56.20
64718;DHT22;62506;46.070;14.492;2023-05-10T13:02:46;22.90;56.20
64718;DHT22;62506;46.070;14.492;2023-05-10T13:05:11;22.90;56.20
64718;DHT22;62506;46.070;14.492;2023-05-10T13:07:38;22.80;56.20
64718;DHT22;62506;46.070;14.492;2023-05-10T13:10:04;22.80;56.30
64718;DHT22;62506;46.070;14.492;2023-05-10T13:12:30;22.80;56.30
64718;DHT22;62506;46.070;14.492;2023-05-10T13:14:56;22.80;57.00
64718;DHT22;62506;46.070;14.492;2023-05-10T13:17:21;22.80;56.40
64718;DHT22;62506;46.070;14.492;2023-05-10T13:19:47;22.80;56.30
64718;DHT22;62506;46.070;14.492;2023-05-10T13:22:12;22.80;54.90
64718;DHT22;62506;46.070;14.492;2023-05-10T13:24:38;22.70;55.60
64718;DHT22;62506;46.070;14.492;2023-05-10T13:27:03;22.70;55.80
64718;DHT22;62506;46.070;14.492;2023-05-10T13:29:29;22.70;56.10
64718;DHT22;62506;46.070;14.492;2023-05-10T13:31:54;22.70;56.20
64718;DHT22;62506;46.070;14.492;2023-05-10T13:34:20;22.70;56.20
64718;DHT22;62506;46.070;14.492;2023-05-10T13:36:46;22.70;56.20
64718;DHT22;62506;46.070;14.492;2023-05-10T13:39:11;22.70;56.10
64718;DHT22;62506;46.070;14.492;2023-05-10T13:41:37;22.70;56.20
64718;DHT22;62506;46.070;14.492;2023-05-10T13:44:03;22.70;56.30
64718;DHT22;62506;46.070;14.492;2023-05-10T13:46:29;22.80;56.40
64718;DHT22;62506;46.070;14.492;2023-05-10T13:48:55;22.80;56.30
64718;DHT22;62506;46.070;14.492;2023-05-10T13:51:20;22.80;56.40
64718;DHT22;62506;46.070;14.492;2023-05-10T13:53:46;22.70;56.40
64718;DHT22;62506;46.070;14.492;2023-05-10T13:56:12;22.80;56.50
64718;DHT22;62506;46.070;14.492;2023-05-10T13:58:38;22.70;56.40
64718;DHT22;62506;46.070;14.492;2023-05-10T14:01:03;22.80;56.30
64718;DHT22;62506;46.070;14.492;2023-05-10T14:03:30;22.80;56.20
64718;DHT22;62506;46.070;14.492;2023-05-10T14:05:55;22.80;56.30
64718;DHT22;62506;46.070;14.492;2023-05-10T14:08:21;22.80;56.30
64718;DHT22;62506;46.070;14.492;2023-05-10T14:10:46;22.90;56.30
64718;DHT22;62506;46.070;14.492;2023-05-10T14:13:12;22.90;56.20
64718;DHT22;62506;46.070;14.492;2023-05-10T14:15:38;23.00;56.20
64718;DHT22;62506;46.070;14.492;2023-05-10T14:18:03;23.00;55.90
64718;DHT22;62506;46.070;14.492;2023-05-10T14:20:29;23.10;56.00
64718;DHT22;62506;46.070;14.492;2023-05-10T14:22:54;23.10;55.90
64718;DHT22;62506;46.070;14.492;2023-05-10T14:25:20;23.10;55.90
64718;DHT22;62506;46.070;14.492;2023-05-10T14:27:45;23.20;55.70
64718;DHT22;62506;46.070;14.492;2023-05-10T14:30:11;23.20;55.70
64718;DHT22;62506;46.070;14.492;2023-05-10T14:32:36;23.20;55.80
64718;DHT22;62506;46.070;14.492;2023-05-10T14:35:02;23.20;55.60
64718;DHT22;62506;46.070;14.492;2023-05-10T14:37:28;23.20;55.70
64718;DHT22;62506;46.070;14.492;2023-05-10T14:39:53;23.30;55.70
64718;DHT22;62506;46.070;14.492;2023-05-10T14:42:19;23.30;55.70
64718;DHT22;62506;46.070;14.492;2023-05-10T14:44:44;23.30;55.70
64718;DHT22;62506;46.070;14.492;2023-05-10T14:47:10;23.30;55.70
64718;DHT22;62506;46.070;14.492;2023-05-10T14:49:36;23.30;55.70
64718;DHT22;62506;46.070;14.492;2023-05-10T14:52:01;23.30;55.70
64718;DHT22;62506;46.070;14.492;2023-05-10T14:54:28;23.30;55.70
64718;DHT22;62506;46.070;14.492;2023-05-10T14:56:53;23.30;55.70
64718;DHT22;62506;46.070;14.492;2023-05-10T14:59:20;23.30;55.80
64718;DHT22;62506;46.070;14.492;2023-05-10T15:01:45;23.30;55.90
64718;DHT22;62506;46.070;14.492;2023-05-10T15:04:11;23.30;55.90
64718;DHT22;62506;46.070;14.492;2023-05-10T15:06:38;23.30;55.90
64718;DHT22;62506;46.070;14.492;2023-05-10T15:09:03;23.30;55.70
64718;DHT22;62506;46.070;14.492;2023-05-10T15:11:29;23.30;55.70
64718;DHT22;62506;46.070;14.492;2023-05-10T15:13:55;23.30;55.70
64718;DHT22;62506;46.070;14.492;2023-05-10T15:16:20;23.30;55.70
64718;DHT22;62506;46.070;14.492;2023-05-10T15:18:46;23.40;55.80
64718;DHT22;62506;46.070;14.492;2023-05-10T15:21:11;23.40;55.80
64718;DHT22;62506;46.070;14.492;2023-05-10T15:23:37;23.40;55.80
64718;DHT22;62506;46.070;14.492;2023-05-10T15:26:03;23.40;55.80
64718;DHT22;62506;46.070;14.492;2023-05-10T15:28:28;23.40;55.80
64718;DHT22;62506;46.070;14.492;2023-05-10T15:30:54;23.40;55.90
64718;DHT22;62506;46.070;14.492;2023-05-10T15:33:20;23.30;55.90
64718;DHT22;62506;46.070;14.492;2023-05-10T15:35:45;23.30;55.90
64718;DHT22;62506;46.070;14.492;2023-05-10T15:38:11;23.30;56.00
64718;DHT22;62506;46.070;14.492;2023-05-10T15:40:36;23.30;56.00
64718;DHT22;62506;46.070;14.492;2023-05-10T15:43:02;23.30;56.00
64718;DHT22;62506;46.070;14.492;2023-05-10T15:45:27;23.30;56.10